Watrous, New Mexico
Current Conditions -  °F | °C
As of 12:53 PM on Saturday 20 Dec 2014 (Local Time) from KLVS Reporting Station
Clear Clear  
Wind Chill: 47°   Ceiling: Unl
Heat Index: 47°   Visibility: 10mi
Dew Point:   Wind: 0mph
Humidity: 21%   Direction: NA
Pressure: 30.01"   Gusts: NA
Location:  35.79°N, 104.98°W
Report Text: KLVS 201953Z AUTO 00000KT 10SM CLR 08/M13 A3001 RMK AO2 SLP144 T00831133
Loading
Personal Weather Stations






























Interactive Weather Map New forecast layout! Learn more

10-Day Weather Forecast

Advertisements
Track Severe Weather on mobile